createdAt,value
2023-03-01T00:01:37.804Z,12.25
2023-03-01T00:04:06.023Z,15.25
2023-03-01T00:06:34.347Z,13.50
2023-03-01T00:09:02.720Z,12.00
2023-03-01T00:11:33.202Z,14.75
2023-03-01T00:14:03.148Z,10.50
2023-03-01T00:16:36.797Z,11.00
2023-03-01T00:19:05.117Z,13.50
2023-03-01T00:21:33.482Z,11.00
2023-03-01T00:24:02.306Z,11.00
2023-03-01T00:26:30.921Z,10.00
2023-03-01T00:28:59.814Z,14.25
2023-03-01T00:31:30.498Z,10.00
2023-03-01T00:34:01.426Z,12.00
2023-03-01T00:36:34.950Z,12.33
2023-03-01T00:39:05.683Z,7.00
2023-03-01T00:41:35.800Z,9.75
2023-03-01T00:44:04.291Z,9.75
2023-03-01T00:46:32.985Z,12.00
2023-03-01T00:49:03.334Z,10.50
2023-03-01T00:51:31.825Z,12.50
2023-03-01T00:54:02.543Z,8.25
2023-03-01T00:56:32.506Z,11.50
2023-03-01T00:59:01.716Z,10.75
2023-03-01T01:01:31.418Z,11.67
2023-03-01T01:04:02.606Z,11.50
2023-03-01T01:06:36.628Z,9.75
2023-03-01T01:09:09.284Z,12.00
2023-03-01T01:11:37.655Z,11.33
2023-03-01T01:14:05.941Z,12.33
2023-03-01T01:16:34.567Z,10.50
2023-03-01T01:19:03.068Z,12.33
2023-03-01T01:21:31.435Z,9.75
2023-03-01T01:23:59.896Z,9.00
2023-03-01T01:26:31.015Z,10.33
2023-03-01T01:28:59.703Z,11.75
2023-03-01T01:31:29.502Z,9.00
2023-03-01T01:33:58.598Z,8.50
2023-03-01T01:36:26.800Z,13.50
2023-03-01T01:38:54.960Z,11.00
2023-03-01T01:41:24.818Z,7.00
2023-03-01T01:44:16.149Z,11.25
2023-03-01T01:46:48.474Z,9.67
2023-03-01T01:49:16.682Z,10.00
2023-03-01T01:51:49.367Z,9.67
2023-03-01T01:54:22.897Z,10.25
2023-03-01T01:57:00.269Z,12.00
2023-03-01T01:59:30.390Z,9.75
2023-03-01T02:02:03.781Z,10.33
2023-03-01T02:04:33.407Z,14.50
2023-03-01T02:07:13.474Z,11.50
2023-03-01T02:09:44.617Z,10.50
2023-03-01T02:12:15.064Z,11.50
2023-03-01T02:14:43.393Z,7.00
2023-03-01T02:17:13.289Z,6.67
2023-03-01T02:19:48.969Z,8.00
2023-03-01T02:22:31.392Z,12.25
2023-03-01T02:25:09.248Z,10.25
2023-03-01T02:27:46.738Z,9.00
2023-03-01T02:30:14.920Z,14.25
2023-03-01T02:32:43.472Z,8.67
2023-03-01T02:35:13.938Z,11.50
2023-03-01T02:37:42.920Z,9.25
2023-03-01T02:40:18.559Z,10.00
2023-03-01T02:42:58.601Z,13.00
2023-03-01T02:45:28.223Z,10.00
2023-03-01T02:47:57.781Z,12.25
2023-03-01T02:50:31.589Z,7.00
2023-03-01T02:53:22.819Z,8.33
2023-03-01T02:55:51.262Z,10.50
2023-03-01T02:58:19.438Z,8.50
2023-03-01T03:00:50.583Z,9.25
2023-03-01T03:03:21.538Z,9.00
2023-03-01T03:05:50.018Z,8.00
2023-03-01T03:08:25.459Z,7.50
2023-03-01T03:10:54.289Z,8.00
2023-03-01T03:13:23.265Z,7.00
2023-03-01T03:15:51.528Z,8.25
2023-03-01T03:18:19.946Z,8.50
2023-03-01T03:20:49.070Z,8.67
2023-03-01T03:23:17.245Z,8.25
2023-03-01T03:25:45.500Z,7.75
2023-03-01T03:28:13.638Z,8.00
2023-03-01T03:30:42.443Z,8.67
2023-03-01T03:33:15.102Z,7.67
2023-03-01T03:35:45.949Z,7.00
2023-03-01T03:38:18.544Z,9.50
2023-03-01T03:40:49.155Z,4.33
2023-03-01T03:43:22.843Z,7.00
2023-03-01T03:45:52.181Z,8.75
2023-03-01T03:48:21.019Z,8.75
2023-03-01T03:50:51.342Z,8.25
2023-03-01T03:53:20.170Z,9.50
2023-03-01T03:55:50.510Z,5.00
2023-03-01T03:58:21.057Z,7.00
2023-03-01T04:00:56.908Z,7.75
2023-03-01T04:03:26.900Z,11.50
2023-03-01T04:05:55.065Z,9.00
2023-03-01T04:08:24.175Z,9.00
2023-03-01T04:10:54.393Z,10.25
2023-03-01T04:13:24.005Z,12.67
2023-03-01T04:15:53.649Z,9.00
2023-03-01T04:18:24.455Z,4.25
2023-03-01T04:20:56.578Z,10.00
2023-03-01T04:23:25.174Z,9.00
2023-03-01T04:25:55.780Z,6.50
2023-03-01T04:28:33.854Z,9.25
2023-03-01T04:31:14.329Z,8.00
2023-03-01T04:33:48.766Z,9.50
2023-03-01T04:36:18.659Z,5.67
2023-03-01T04:38:50.160Z,9.00
2023-03-01T04:41:20.584Z,8.00
2023-03-01T04:43:49.683Z,10.75
2023-03-01T04:46:20.142Z,9.00
2023-03-01T04:48:48.559Z,8.33
2023-03-01T04:51:17.755Z,8.00
2023-03-01T04:53:46.124Z,7.25
2023-03-01T04:56:15.417Z,7.67
2023-03-01T04:58:43.734Z,7.00
2023-03-01T05:01:17.833Z,9.25
2023-03-01T05:03:48.698Z,7.00
2023-03-01T05:06:18.056Z,10.00
2023-03-01T05:08:46.772Z,6.75
2023-03-01T05:11:15.057Z,5.75
2023-03-01T05:13:43.354Z,5.75
2023-03-01T05:16:12.813Z,8.25
2023-03-01T05:18:41.896Z,9.00
2023-03-01T05:21:12.904Z,8.33
2023-03-01T05:23:41.248Z,7.50
2023-03-01T05:26:25.766Z,10.75
2023-03-01T05:29:00.621Z,4.00
2023-03-01T05:31:29.640Z,5.00
2023-03-01T05:33:57.987Z,10.50
2023-03-01T05:36:26.152Z,9.33
2023-03-01T05:38:54.398Z,8.33
2023-03-01T05:41:22.627Z,8.67
2023-03-01T05:43:50.903Z,7.25
2023-03-01T05:46:19.153Z,7.00
2023-03-01T05:48:49.462Z,6.00
2023-03-01T05:51:18.813Z,6.00
2023-03-01T05:53:47.185Z,8.25
2023-03-01T05:56:15.408Z,8.00
2023-03-01T05:58:43.598Z,6.00
2023-03-01T06:01:14.806Z,6.33
2023-03-01T06:03:43.173Z,7.00
2023-03-01T06:06:11.345Z,6.00
2023-03-01T06:08:39.690Z,11.25
2023-03-01T06:11:08.892Z,7.67
2023-03-01T06:13:37.377Z,6.50
2023-03-01T06:16:07.965Z,6.75
2023-03-01T06:18:36.476Z,6.00
2023-03-01T06:21:05.189Z,8.67
2023-03-01T06:23:33.680Z,7.00
2023-03-01T06:26:06.072Z,9.00
2023-03-01T06:28:34.537Z,8.75
2023-03-01T06:31:03.146Z,9.00
2023-03-01T06:33:31.569Z,8.00
2023-03-01T06:35:59.863Z,6.00
2023-03-01T06:38:28.054Z,6.00
2023-03-01T06:40:57.708Z,5.00
2023-03-01T06:43:26.136Z,7.00
2023-03-01T06:45:54.324Z,9.25
2023-03-01T06:48:22.571Z,10.67
2023-03-01T06:50:50.985Z,7.75
2023-03-01T06:53:19.210Z,8.25
2023-03-01T06:55:47.437Z,7.67
2023-03-01T06:58:15.670Z,7.25
2023-03-01T07:00:44.711Z,9.25
2023-03-01T07:03:13.020Z,5.67
2023-03-01T07:05:41.604Z,9.00
2023-03-01T07:08:09.950Z,4.00
2023-03-01T07:10:38.576Z,5.67
2023-03-01T07:13:08.218Z,4.00
2023-03-01T07:15:36.854Z,8.00
2023-03-01T07:18:05.160Z,7.75
2023-03-01T07:20:33.374Z,9.00
2023-03-01T07:23:01.565Z,9.00
2023-03-01T07:25:29.830Z,7.25
2023-03-01T07:27:58.143Z,6.67
2023-03-01T07:30:29.854Z,9.00
2023-03-01T07:32:58.827Z,5.00
2023-03-01T07:35:28.135Z,8.25
2023-03-01T07:37:56.461Z,10.00
2023-03-01T07:40:24.748Z,6.33
2023-03-01T07:42:59.857Z,6.75
2023-03-01T07:45:29.422Z,5.75
2023-03-01T07:47:57.786Z,11.00
2023-03-01T07:50:26.049Z,6.00
2023-03-01T07:52:54.187Z,7.00
2023-03-01T07:55:22.408Z,8.75
2023-03-01T07:57:50.558Z,8.25
2023-03-01T08:00:19.217Z,7.00
2023-03-01T08:02:47.481Z,6.00
2023-03-01T08:05:16.196Z,7.25
2023-03-01T08:07:44.417Z,6.50
2023-03-01T08:10:12.724Z,6.75
2023-03-01T08:12:40.994Z,7.50
2023-03-01T08:15:09.907Z,7.00
2023-03-01T08:17:38.185Z,5.50
2023-03-01T08:20:08.249Z,7.75
2023-03-01T08:22:36.554Z,6.67
2023-03-01T08:25:05.139Z,6.33
2023-03-01T08:27:33.308Z,7.50
2023-03-01T08:30:01.663Z,7.50
2023-03-01T08:32:30.329Z,6.75
2023-03-01T08:34:58.664Z,4.00
2023-03-01T08:37:27.038Z,5.67
2023-03-01T08:39:56.163Z,6.75
2023-03-01T08:42:24.483Z,5.00
2023-03-01T08:44:52.676Z,7.33
2023-03-01T08:47:20.949Z,6.25
2023-03-01T08:49:51.670Z,5.67
2023-03-01T08:52:21.386Z,7.25
2023-03-01T08:54:50.276Z,6.00
2023-03-01T08:57:18.575Z,10.75
2023-03-01T08:59:47.319Z,7.00
2023-03-01T09:02:18.298Z,7.00
2023-03-01T09:04:46.718Z,7.50
2023-03-01T09:07:15.093Z,5.75
2023-03-01T09:09:43.537Z,7.00
2023-03-01T09:12:12.075Z,6.33
2023-03-01T09:14:42.337Z,8.00
2023-03-01T09:17:10.985Z,5.00
2023-03-01T09:19:39.467Z,8.67
2023-03-01T09:22:07.711Z,8.00
2023-03-01T09:24:35.947Z,5.00
2023-03-01T09:27:04.136Z,6.50
2023-03-01T09:29:32.396Z,6.50
2023-03-01T09:32:01.783Z,5.00
2023-03-01T09:34:30.550Z,7.33
2023-03-01T09:36:59.129Z,10.50
2023-03-01T09:39:27.812Z,6.75
2023-03-01T09:42:05.772Z,8.00
2023-03-01T09:44:50.388Z,8.33
2023-03-01T09:47:21.474Z,7.50
2023-03-01T09:49:59.827Z,6.75
2023-03-01T09:52:41.796Z,1.33
2023-03-01T09:55:16.082Z,6.50
2023-03-01T09:57:57.313Z,8.00
2023-03-01T10:00:25.714Z,5.50
2023-03-01T10:03:18.155Z,7.00
2023-03-01T10:06:03.712Z,6.67
2023-03-01T10:08:44.552Z,8.00
2023-03-01T10:11:33.191Z,7.67
2023-03-01T10:14:10.416Z,8.00
2023-03-01T10:16:53.852Z,6.00
2023-03-01T10:19:32.848Z,6.00
2023-03-01T10:22:06.992Z,7.00
2023-03-01T10:24:37.216Z,8.00
2023-03-01T10:27:21.239Z,5.75
2023-03-01T10:30:21.106Z,5.00
2023-03-01T10:33:03.105Z,8.33
2023-03-01T10:35:35.366Z,6.00
2023-03-01T10:38:12.663Z,6.00
2023-03-01T10:41:10.230Z,6.25
2023-03-01T10:43:50.826Z,6.00
2023-03-01T10:46:28.556Z,4.33
2023-03-01T10:49:20.599Z,6.67
2023-03-01T10:51:53.398Z,5.00
2023-03-01T10:54:33.017Z,4.50
2023-03-01T10:57:03.450Z,6.50
2023-03-01T10:59:33.192Z,6.00
2023-03-01T11:02:29.339Z,6.33
2023-03-01T11:05:25.092Z,3.50
2023-03-01T11:07:56.303Z,4.75
2023-03-01T11:10:37.697Z,8.33
2023-03-01T11:13:17.939Z,5.50
2023-03-01T11:16:03.436Z,5.50
2023-03-01T11:18:46.156Z,7.00
2023-03-01T11:21:17.491Z,4.67
2023-03-01T11:23:47.042Z,7.00
2023-03-01T11:26:16.977Z,7.25
2023-03-01T11:28:48.395Z,6.00
2023-03-01T11:31:18.072Z,6.00
2023-03-01T11:33:52.417Z,5.33
2023-03-01T11:36:37.160Z,8.00
2023-03-01T11:39:29.973Z,5.75
2023-03-01T11:42:17.095Z,5.50
2023-03-01T11:44:49.869Z,4.75
2023-03-01T11:47:29.155Z,6.00
2023-03-01T11:50:17.238Z,5.75
2023-03-01T11:52:54.537Z,6.33
2023-03-01T11:55:35.723Z,6.00
2023-03-01T11:58:06.888Z,3.50
2023-03-01T12:00:45.595Z,5.00
2023-03-01T12:03:31.875Z,8.33
2023-03-01T12:06:39.334Z,6.75
2023-03-01T12:09:25.871Z,7.33
2023-03-01T12:12:11.006Z,3.75
2023-03-01T12:15:00.812Z,5.33
2023-03-01T12:18:10.370Z,4.50
2023-03-01T12:20:57.385Z,3.00
2023-03-01T12:24:04.372Z,6.25
2023-03-01T12:26:41.734Z,2.67
2023-03-01T12:29:25.022Z,5.00
2023-03-01T12:32:08.576Z,7.67
2023-03-01T12:35:00.910Z,6.25
2023-03-01T12:38:18.394Z,5.75
2023-03-01T12:41:01.655Z,5.00
2023-03-01T12:43:42.013Z,4.50
2023-03-01T12:46:57.365Z,4.00
2023-03-01T12:49:34.268Z,7.00
2023-03-01T12:52:15.227Z,6.75
2023-03-01T12:54:43.489Z,5.00
2023-03-01T12:57:38.279Z,6.50
2023-03-01T13:00:21.658Z,6.00
2023-03-01T13:03:28.377Z,6.00
2023-03-01T13:06:19.701Z,5.25
2023-03-01T13:08:50.616Z,6.00
2023-03-01T13:11:23.240Z,3.50
2023-03-01T13:13:52.795Z,3.33
2023-03-01T13:16:28.922Z,4.33
2023-03-01T13:19:11.594Z,6.25
2023-03-01T13:21:39.917Z,8.25
2023-03-01T13:24:25.356Z,4.00
2023-03-01T13:27:09.221Z,4.00
2023-03-01T13:29:48.753Z,5.67
2023-03-01T13:32:46.604Z,4.33
2023-03-01T13:35:20.976Z,4.50
2023-03-01T13:37:49.321Z,6.25
2023-03-01T13:40:18.044Z,4.75
2023-03-01T13:43:04.754Z,5.33
2023-03-01T13:45:41.567Z,7.75
2023-03-01T13:48:20.230Z,5.33
2023-03-01T13:50:56.282Z,4.00
2023-03-01T13:53:26.959Z,6.67
2023-03-01T13:56:10.922Z,5.75
2023-03-01T13:58:49.628Z,5.00
2023-03-01T14:01:30.249Z,6.75
2023-03-01T14:03:59.448Z,9.00
2023-03-01T14:06:32.871Z,5.25
2023-03-01T14:09:16.570Z,6.00
2023-03-01T14:11:50.868Z,6.00
2023-03-01T14:14:33.258Z,6.67
2023-03-01T14:17:13.774Z,4.00
2023-03-01T14:19:46.047Z,5.00
2023-03-01T14:22:19.569Z,5.67
2023-03-01T14:24:58.811Z,3.50
2023-03-01T14:27:47.250Z,5.25
2023-03-01T14:30:49.745Z,5.50
2023-03-01T14:33:37.302Z,5.50
2023-03-01T14:36:13.915Z,6.50
2023-03-01T14:38:46.992Z,6.75
2023-03-01T14:41:19.715Z,5.00
2023-03-01T14:43:52.423Z,6.25
2023-03-01T14:46:22.324Z,5.00
2023-03-01T14:48:58.055Z,5.33
2023-03-01T14:51:26.417Z,4.75
2023-03-01T14:53:55.139Z,4.00
2023-03-01T14:56:23.754Z,4.67
2023-03-01T14:58:59.727Z,5.00
2023-03-01T15:01:28.183Z,22.75
2023-03-01T15:03:56.711Z,26.00
2023-03-01T15:06:25.172Z,30.00
2023-03-01T15:08:55.329Z,35.67
2023-03-01T15:11:33.888Z,28.75
2023-03-01T15:14:01.979Z,16.33
2023-03-01T15:16:34.786Z,15.00
2023-03-01T15:19:06.375Z,12.00
2023-03-01T15:21:36.926Z,21.25
2023-03-01T15:24:21.581Z,27.50
2023-03-01T15:26:55.462Z,26.50
2023-03-01T15:29:28.149Z,21.75
2023-03-01T15:32:05.697Z,23.33
2023-03-01T15:34:35.392Z,25.75
2023-03-01T15:37:06.724Z,29.75
2023-03-01T15:39:46.264Z,23.75
2023-03-01T15:42:34.314Z,19.25
2023-03-01T15:45:18.333Z,27.00
2023-03-01T15:47:51.302Z,18.50
2023-03-01T15:50:26.327Z,18.75
2023-03-01T15:52:55.313Z,19.67
2023-03-01T15:55:30.815Z,22.00
2023-03-01T15:58:05.408Z,24.00
2023-03-01T16:00:34.096Z,20.75
2023-03-01T16:03:02.493Z,19.75
2023-03-01T16:05:33.680Z,21.00
2023-03-01T16:08:02.980Z,24.25
2023-03-01T16:10:32.074Z,25.75
2023-03-01T16:13:00.883Z,26.00
2023-03-01T16:15:33.008Z,27.00
2023-03-01T16:18:01.688Z,21.00
2023-03-01T16:20:33.528Z,23.50
2023-03-01T16:23:07.502Z,19.00
2023-03-01T16:25:36.737Z,18.67
2023-03-01T16:28:10.339Z,23.67
2023-03-01T16:30:40.913Z,20.00
2023-03-01T16:33:30.165Z,19.67
2023-03-01T16:35:59.180Z,18.33
2023-03-01T16:38:27.524Z,21.33
2023-03-01T16:40:55.720Z,20.50
2023-03-01T16:43:23.864Z,22.25
2023-03-01T16:45:52.437Z,23.50
2023-03-01T16:48:20.741Z,18.50
2023-03-01T16:50:59.777Z,21.00
2023-03-01T16:53:29.225Z,16.33
2023-03-01T16:55:59.102Z,24.67
2023-03-01T16:58:27.474Z,23.50
2023-03-01T17:00:57.575Z,26.00
2023-03-01T17:03:27.418Z,19.25
2023-03-01T17:05:55.732Z,22.00
2023-03-01T17:08:23.907Z,18.00
2023-03-01T17:10:52.099Z,24.33
2023-03-01T17:13:20.279Z,19.00
2023-03-01T17:15:48.423Z,23.25
2023-03-01T17:18:16.576Z,20.00
2023-03-01T17:20:44.781Z,17.67
2023-03-01T17:23:12.916Z,17.50
2023-03-01T17:25:46.389Z,18.67
2023-03-01T17:28:15.118Z,16.25
2023-03-01T17:30:45.646Z,22.33
2023-03-01T17:33:14.555Z,18.67
2023-03-01T17:35:42.801Z,22.00
2023-03-01T17:38:10.969Z,21.25
2023-03-01T17:40:40.109Z,21.25
2023-03-01T17:43:09.516Z,23.75
2023-03-01T17:45:38.495Z,21.00
2023-03-01T17:48:07.721Z,21.75
2023-03-01T17:50:38.842Z,21.00
2023-03-01T17:53:10.034Z,18.75
2023-03-01T17:55:39.835Z,25.33
2023-03-01T17:58:08.999Z,26.00
2023-03-01T18:00:37.866Z,22.00
2023-03-01T18:03:06.664Z,22.67
2023-03-01T18:05:36.476Z,27.33
2023-03-01T18:08:05.200Z,26.33
2023-03-01T18:10:34.567Z,23.75
2023-03-01T18:13:04.066Z,24.50
2023-03-01T18:15:33.176Z,25.00
2023-03-01T18:18:01.684Z,28.00
2023-03-01T18:20:30.937Z,34.50
2023-03-01T18:22:59.158Z,27.33
2023-03-01T18:25:27.430Z,32.50
2023-03-01T18:27:55.696Z,37.25
2023-03-01T18:30:23.874Z,30.33
2023-03-01T18:32:56.482Z,26.00
2023-03-01T18:35:24.814Z,29.50
2023-03-01T18:37:53.020Z,21.67
2023-03-01T18:40:21.314Z,34.25
2023-03-01T18:42:49.408Z,28.25
2023-03-01T18:45:19.450Z,33.00
2023-03-01T18:47:50.068Z,29.75
2023-03-01T18:50:18.682Z,33.25
2023-03-01T18:52:46.836Z,29.50
2023-03-01T18:55:15.127Z,27.33
2023-03-01T18:57:43.411Z,31.33
2023-03-01T19:00:12.239Z,30.50
2023-03-01T19:02:40.465Z,33.00
2023-03-01T19:05:09.208Z,26.50
2023-03-01T19:07:37.303Z,28.00
2023-03-01T19:10:06.040Z,30.00
2023-03-01T19:12:35.844Z,30.33
2023-03-01T19:15:05.403Z,18.67
2023-03-01T19:17:33.866Z,30.00
2023-03-01T19:20:02.242Z,29.00
2023-03-01T19:22:30.546Z,25.75
2023-03-01T19:24:58.709Z,30.67
2023-03-01T19:27:26.905Z,17.50
2023-03-01T19:29:55.038Z,14.50
2023-03-01T19:32:23.241Z,27.67
2023-03-01T19:34:51.409Z,27.25
2023-03-01T19:37:19.578Z,21.00
2023-03-01T19:39:48.245Z,27.25
2023-03-01T19:42:16.470Z,27.00
2023-03-01T19:44:44.888Z,26.00
2023-03-01T19:47:13.077Z,16.25
2023-03-01T19:49:42.634Z,27.25
2023-03-01T19:52:10.893Z,25.00
2023-03-01T19:54:39.141Z,23.50
2023-03-01T19:57:07.334Z,26.33
2023-03-01T19:59:35.530Z,25.50
2023-03-01T20:02:04.086Z,25.00
2023-03-01T20:04:32.394Z,29.25
2023-03-01T20:07:00.584Z,34.00
2023-03-01T20:09:28.784Z,46.33
2023-03-01T20:11:56.998Z,50.33
2023-03-01T20:14:25.099Z,42.33
2023-03-01T20:16:53.325Z,45.00
2023-03-01T20:19:21.510Z,36.33
2023-03-01T20:21:49.718Z,28.50
2023-03-01T20:24:17.894Z,30.33
2023-03-01T20:26:46.133Z,32.33
2023-03-01T20:29:14.306Z,41.00
2023-03-01T20:31:42.879Z,32.33
2023-03-01T20:34:11.229Z,29.50
2023-03-01T20:36:41.101Z,30.25
2023-03-01T20:39:09.893Z,32.67
2023-03-01T20:41:39.377Z,28.67
2023-03-01T20:44:07.797Z,25.00
2023-03-01T20:46:36.630Z,26.67
2023-03-01T20:49:05.477Z,27.00
2023-03-01T20:51:33.697Z,31.75
2023-03-01T20:54:01.995Z,26.00
2023-03-01T20:56:30.581Z,27.00
2023-03-01T20:58:59.237Z,22.75
2023-03-01T21:01:27.713Z,24.67
2023-03-01T21:03:56.513Z,19.25
2023-03-01T21:06:24.795Z,23.75
2023-03-01T21:08:54.820Z,25.75
2023-03-01T21:11:26.219Z,24.00
2023-03-01T21:13:54.756Z,24.67
2023-03-01T21:16:23.930Z,20.00
2023-03-01T21:18:52.211Z,23.67
2023-03-01T21:21:22.866Z,21.00
2023-03-01T21:23:51.182Z,25.00
2023-03-01T21:26:21.758Z,28.75
2023-03-01T21:28:54.937Z,20.33
2023-03-01T21:31:25.334Z,23.75
2023-03-01T21:33:57.897Z,9.25
2023-03-01T21:36:27.403Z,25.50
2023-03-01T21:38:56.206Z,25.00
2023-03-01T21:41:27.813Z,22.50
2023-03-01T21:44:00.673Z,21.25
2023-03-01T21:46:31.595Z,15.50
2023-03-01T21:49:00.197Z,23.75
2023-03-01T21:51:28.696Z,23.00
2023-03-01T21:53:59.249Z,22.67
2023-03-01T21:56:29.937Z,25.00
2023-03-01T21:58:58.930Z,27.50
2023-03-01T22:01:28.426Z,18.50
2023-03-01T22:03:57.939Z,24.25
2023-03-01T22:06:34.412Z,24.33
2023-03-01T22:09:09.470Z,24.25
2023-03-01T22:11:40.291Z,19.00
2023-03-01T22:14:09.266Z,19.00
2023-03-01T22:16:38.401Z,26.00
2023-03-01T22:19:07.561Z,20.00
2023-03-01T22:21:39.387Z,21.00
2023-03-01T22:24:08.561Z,16.00
2023-03-01T22:26:40.011Z,22.00
2023-03-01T22:29:11.490Z,13.67
2023-03-01T22:31:40.226Z,17.33
2023-03-01T22:34:08.841Z,20.00
2023-03-01T22:36:39.474Z,20.33
2023-03-01T22:39:07.743Z,20.25
2023-03-01T22:41:41.557Z,14.00
2023-03-01T22:44:10.887Z,17.00
2023-03-01T22:46:39.187Z,16.25
2023-03-01T22:49:07.793Z,15.25
2023-03-01T22:51:38.280Z,18.75
2023-03-01T22:54:07.195Z,22.67
2023-03-01T22:56:36.909Z,18.33
2023-03-01T22:59:10.272Z,19.25
2023-03-01T23:01:40.263Z,16.00
2023-03-01T23:04:08.375Z,13.33
2023-03-01T23:06:50.383Z,22.00
2023-03-01T23:09:30.156Z,18.00
2023-03-01T23:11:59.491Z,17.25
2023-03-01T23:14:31.250Z,16.00
2023-03-01T23:17:02.636Z,22.00
2023-03-01T23:19:31.248Z,20.00
2023-03-01T23:21:59.665Z,18.50
2023-03-01T23:24:31.982Z,21.00
2023-03-01T23:27:01.472Z,17.50
2023-03-01T23:29:30.329Z,16.25
2023-03-01T23:31:59.443Z,22.00
2023-03-01T23:34:27.893Z,15.75
2023-03-01T23:36:58.126Z,21.67
2023-03-01T23:39:27.300Z,17.00
2023-03-01T23:41:55.858Z,17.00
2023-03-01T23:44:24.143Z,20.25
2023-03-01T23:46:52.376Z,20.00
2023-03-01T23:49:23.309Z,20.00
2023-03-01T23:51:51.813Z,20.50
2023-03-01T23:54:23.201Z,17.50
2023-03-01T23:56:51.568Z,17.00
2023-03-01T23:59:22.061Z,21.00
